Terminal Aerodrome Forecast
Issued by NWS Wilmington, OH

Home | Current Version | Previous Version | Text Only | Print | Product List | Glossary On
Versions: 1 2 3 4 5 6 7 8 9 10 11 12 13 14 15 16 17 18 19 20 21 22
219
FTUS41 KILN 272344
TAFILN
TAF
KILN 272344Z 2800/2824 22010KT P6SM FEW060 SCT250
     FM280200 21006KT P6SM SCT250
     FM281000 19005KT P6SM SCT050 BKN100
     FM281400 20006KT P6SM VCSH OVC050
     FM281800 22007KT 5SM -SHRA BR OVC040=

USA.gov is the U.S. government's official web portal to all federal, state and local government web resources and services.